createdAt,value
2018-04-26T00:01:03.230Z,10.77
2018-04-26T00:03:30.223Z,8.17
2018-04-26T00:05:57.249Z,10.47
2018-04-26T00:08:24.244Z,10.63
2018-04-26T00:10:51.231Z,10.13
2018-04-26T00:13:19.228Z,9.67
2018-04-26T00:15:46.221Z,8.20
2018-04-26T00:18:13.247Z,9.47
2018-04-26T00:20:40.275Z,6.83
2018-04-26T00:23:07.262Z,11.80
2018-04-26T00:25:34.258Z,7.00
2018-04-26T00:28:01.296Z,7.47
2018-04-26T00:30:28.292Z,9.30
2018-04-26T00:32:55.281Z,7.30
2018-04-26T00:35:23.279Z,9.77
2018-04-26T00:37:50.289Z,8.50
2018-04-26T00:40:18.167Z,10.73
2018-04-26T00:42:45.206Z,7.47
2018-04-26T00:45:13.064Z,10.30
2018-04-26T00:47:40.056Z,11.03
2018-04-26T00:52:46.532Z,8.50
2018-04-26T00:55:14.014Z,10.87
2018-04-26T00:57:41.013Z,12.43
2018-04-26T01:00:08.004Z,10.50
2018-04-26T01:02:35.433Z,5.77
2018-04-26T01:05:02.417Z,10.77
2018-04-26T01:07:29.399Z,10.97
2018-04-26T01:09:56.420Z,12.73
2018-04-26T01:12:23.415Z,7.57
2018-04-26T01:14:50.435Z,13.17
2018-04-26T01:17:18.398Z,9.00
2018-04-26T01:19:45.401Z,12.53
2018-04-26T01:22:12.423Z,8.27
2018-04-26T01:24:39.448Z,8.27
2018-04-26T01:27:06.459Z,11.73
2018-04-26T01:29:33.451Z,7.40
2018-04-26T01:32:00.567Z,11.10
2018-04-26T01:34:27.482Z,9.47
2018-04-26T01:37:06.306Z,8.97
2018-04-26T01:39:33.305Z,11.70
2018-04-26T01:42:00.293Z,10.63
2018-04-26T01:44:27.339Z,7.30
2018-04-26T01:46:54.332Z,9.07
2018-04-26T01:49:21.410Z,10.53
2018-04-26T01:51:48.437Z,8.03
2018-04-26T01:54:15.426Z,8.50
2018-04-26T01:56:42.410Z,7.10
2018-04-26T01:59:09.449Z,9.83
2018-04-26T02:01:36.539Z,6.60
2018-04-26T02:04:04.488Z,14.63
2018-04-26T02:06:31.518Z,10.10
2018-04-26T02:08:58.583Z,9.70
2018-04-26T02:11:25.578Z,9.60
2018-04-26T02:13:53.365Z,9.40
2018-04-26T02:19:00.868Z,13.20
2018-04-26T02:21:27.853Z,10.87
2018-04-26T02:23:54.841Z,10.77
2018-04-26T02:26:21.887Z,12.63
2018-04-26T02:28:48.892Z,9.23
2018-04-26T02:31:15.883Z,8.80
2018-04-26T02:33:42.915Z,7.43
2018-04-26T02:36:09.905Z,9.13
2018-04-26T02:38:36.900Z,14.30
2018-04-26T02:41:03.922Z,10.07
2018-04-26T02:43:30.913Z,8.87
2018-04-26T02:45:57.911Z,11.30
2018-04-26T02:48:24.956Z,9.30
2018-04-26T02:50:51.943Z,10.10
2018-04-26T02:53:18.929Z,7.07
2018-04-26T02:55:45.956Z,12.23
2018-04-26T02:58:12.940Z,7.30
2018-04-26T03:00:40.776Z,8.97
2018-04-26T03:03:07.821Z,10.63
2018-04-26T03:05:34.783Z,11.83
2018-04-26T03:08:01.785Z,9.83
2018-04-26T03:10:28.804Z,10.57
2018-04-26T03:12:55.879Z,9.23
2018-04-26T03:15:22.789Z,8.60
2018-04-26T03:17:49.822Z,7.23
2018-04-26T03:20:16.817Z,10.50
2018-04-26T03:22:43.796Z,6.93
2018-04-26T03:25:10.830Z,8.60
2018-04-26T03:27:37.809Z,10.83
2018-04-26T03:30:04.804Z,12.57
2018-04-26T03:32:32.782Z,7.27
2018-04-26T03:34:59.786Z,9.67
2018-04-26T03:37:26.801Z,7.97
2018-04-26T03:39:53.794Z,9.67
2018-04-26T03:44:59.298Z,6.87
2018-04-26T03:47:27.247Z,4.27
2018-04-26T03:49:54.253Z,6.33
2018-04-26T03:52:21.271Z,6.83
2018-04-26T03:54:48.261Z,7.43
2018-04-26T03:57:15.274Z,9.87
2018-04-26T03:59:54.018Z,7.93
2018-04-26T04:02:32.862Z,9.20
2018-04-26T04:07:47.892Z,12.25
2018-04-26T04:10:14.913Z,10.27
2018-04-26T04:12:42.852Z,6.97
2018-04-26T04:15:09.841Z,9.27
2018-04-26T04:17:37.189Z,8.20
2018-04-26T04:20:04.213Z,8.07
2018-04-26T04:22:31.208Z,10.10
2018-04-26T04:24:58.249Z,9.40
2018-04-26T04:27:25.240Z,8.67
2018-04-26T04:29:52.244Z,10.60
2018-04-26T04:32:21.698Z,7.30
2018-04-26T04:34:48.633Z,5.47
2018-04-26T04:37:15.636Z,8.67
2018-04-26T04:39:42.666Z,7.23
2018-04-26T04:42:09.678Z,5.40
2018-04-26T04:44:37.646Z,10.90
2018-04-26T04:47:04.674Z,6.07
2018-04-26T04:49:31.669Z,6.10
2018-04-26T04:51:58.673Z,7.10
2018-04-26T04:54:26.561Z,10.90
2018-04-26T04:56:54.369Z,6.90
2018-04-26T04:59:21.371Z,6.07
2018-04-26T05:01:48.399Z,8.93
2018-04-26T05:04:15.415Z,8.50
2018-04-26T05:06:42.420Z,8.10
2018-04-26T05:09:09.432Z,6.70
2018-04-26T05:11:36.424Z,9.70
2018-04-26T05:14:03.409Z,3.60
2018-04-26T05:16:30.456Z,5.07
2018-04-26T05:18:57.449Z,5.13
2018-04-26T05:21:24.436Z,5.30
2018-04-26T05:23:51.544Z,6.20
2018-04-26T05:26:18.557Z,4.63
2018-04-26T05:28:45.575Z,3.93
2018-04-26T05:31:12.708Z,4.93
2018-04-26T05:36:20.698Z,4.12
2018-04-26T05:38:47.701Z,12.27
2018-04-26T05:41:14.705Z,4.33
2018-04-26T05:43:41.746Z,3.63
2018-04-26T05:46:09.594Z,5.17
2018-04-26T05:48:37.419Z,8.23
2018-04-26T05:51:04.449Z,4.00
2018-04-26T05:53:31.453Z,5.67
2018-04-26T05:55:58.487Z,5.57
2018-04-26T05:58:25.477Z,6.03
2018-04-26T06:00:53.421Z,5.37
2018-04-26T06:03:20.412Z,6.70
2018-04-26T06:05:47.441Z,5.03
2018-04-26T06:08:14.441Z,4.00
2018-04-26T06:10:41.426Z,6.93
2018-04-26T06:13:08.448Z,4.80
2018-04-26T06:15:35.445Z,5.17
2018-04-26T06:18:02.447Z,5.70
2018-04-26T06:20:29.479Z,4.43
2018-04-26T06:25:34.645Z,6.35
2018-04-26T06:28:01.627Z,3.37
2018-04-26T06:30:28.627Z,2.43
2018-04-26T06:32:55.659Z,4.07
2018-04-26T06:35:22.660Z,3.27
2018-04-26T06:37:49.648Z,7.37
2018-04-26T06:40:16.668Z,4.97
2018-04-26T06:42:44.477Z,3.37
2018-04-26T06:45:11.480Z,5.03
2018-04-26T06:47:38.523Z,6.17
2018-04-26T06:50:05.530Z,5.13
2018-04-26T06:52:32.528Z,6.33
2018-04-26T06:54:59.550Z,4.93
2018-04-26T06:57:26.543Z,4.17
2018-04-26T06:59:53.565Z,3.80
2018-04-26T07:02:20.606Z,3.30
2018-04-26T07:04:47.633Z,4.83
2018-04-26T07:07:14.633Z,6.23
2018-04-26T07:09:41.655Z,3.60
2018-04-26T07:12:08.666Z,6.53
2018-04-26T07:14:36.369Z,3.53
2018-04-26T07:17:03.407Z,5.27
2018-04-26T07:19:30.411Z,4.07
2018-04-26T07:21:57.422Z,6.50
2018-04-26T07:24:24.444Z,5.63
2018-04-26T07:26:51.434Z,3.90
2018-04-26T07:29:18.515Z,7.03
2018-04-26T07:31:45.551Z,4.60
2018-04-26T07:34:13.805Z,4.87
2018-04-26T07:36:40.797Z,3.03
2018-04-26T07:39:08.578Z,6.63
2018-04-26T07:41:35.562Z,7.93
2018-04-26T07:44:02.565Z,3.97
2018-04-26T07:46:29.600Z,7.70
2018-04-26T07:48:56.602Z,5.97
2018-04-26T07:54:03.878Z,5.35
2018-04-26T07:56:30.878Z,3.97
2018-04-26T07:58:57.871Z,5.93
2018-04-26T08:01:24.992Z,4.63
2018-04-26T08:03:51.993Z,4.03
2018-04-26T08:06:19.009Z,8.30
2018-04-26T08:08:46.033Z,4.10
2018-04-26T08:11:13.028Z,4.30
2018-04-26T08:13:40.019Z,6.93
2018-04-26T08:16:07.051Z,4.63
2018-04-26T08:18:34.048Z,4.73
2018-04-26T08:21:01.048Z,4.83
2018-04-26T08:23:28.081Z,3.97
2018-04-26T08:25:55.070Z,4.93
2018-04-26T08:28:22.070Z,4.63
2018-04-26T08:30:49.119Z,4.90
2018-04-26T08:33:16.120Z,5.33
2018-04-26T08:35:43.197Z,5.50
2018-04-26T08:38:10.234Z,7.27
2018-04-26T08:40:37.238Z,4.43
2018-04-26T08:43:04.787Z,4.83
2018-04-26T08:45:31.836Z,5.77
2018-04-26T08:47:58.805Z,5.40
2018-04-26T08:50:25.794Z,4.90
2018-04-26T08:52:53.695Z,6.03
2018-04-26T08:55:20.700Z,5.90
2018-04-26T08:57:47.697Z,5.57
2018-04-26T09:00:14.740Z,8.33
2018-04-26T09:02:41.834Z,4.37
2018-04-26T09:05:08.835Z,2.23
2018-04-26T09:07:35.857Z,1.30
2018-04-26T09:12:43.355Z,0.43
2018-04-26T09:15:10.530Z,1.57
2018-04-26T09:17:37.604Z,1.13
2018-04-26T09:20:04.642Z,0.40
2018-04-26T09:22:32.067Z,0.57
2018-04-26T09:24:59.057Z,0.30
2018-04-26T09:27:26.095Z,0.43
2018-04-26T09:29:53.096Z,0.77
2018-04-26T09:32:20.863Z,0.60
2018-04-26T09:34:47.882Z,2.53
2018-04-26T09:37:14.873Z,1.43
2018-04-26T09:39:41.958Z,1.17
2018-04-26T09:42:08.982Z,0.37
2018-04-26T09:44:35.978Z,0.30
2018-04-26T09:47:02.976Z,0.40
2018-04-26T09:49:30.005Z,0.50
2018-04-26T09:51:58.878Z,1.70
2018-04-26T09:54:23.989Z,0.77
2018-04-26T09:56:51.105Z,2.37
2018-04-26T09:59:18.103Z,0.43
2018-04-26T10:01:45.135Z,0.83
2018-04-26T10:04:12.856Z,2.37
2018-04-26T10:06:39.848Z,1.07
2018-04-26T10:09:06.833Z,1.53
2018-04-26T10:11:33.868Z,0.43
2018-04-26T10:14:00.859Z,1.07
2018-04-26T10:16:27.942Z,0.60
2018-04-26T10:18:55.935Z,1.70
2018-04-26T10:21:23.872Z,0.60
2018-04-26T10:23:50.873Z,2.30
2018-04-26T10:26:17.914Z,2.83
2018-04-26T10:28:44.906Z,0.70
2018-04-26T10:31:12.787Z,1.73
2018-04-26T10:33:39.819Z,1.27
2018-04-26T10:36:06.821Z,0.77
2018-04-26T10:41:12.323Z,0.90
2018-04-26T10:43:39.637Z,1.37
2018-04-26T10:46:06.640Z,1.70
2018-04-26T10:48:33.660Z,2.17
2018-04-26T10:51:00.663Z,1.83
2018-04-26T10:53:27.854Z,1.07
2018-04-26T10:55:54.955Z,0.50
2018-04-26T10:58:21.945Z,1.60
2018-04-26T11:00:49.748Z,0.60
2018-04-26T11:03:16.772Z,0.40
2018-04-26T11:05:43.764Z,3.20
2018-04-26T11:08:10.770Z,0.40
2018-04-26T11:10:37.803Z,3.00
2018-04-26T11:13:04.794Z,0.60
2018-04-26T11:15:31.800Z,0.67
2018-04-26T11:17:58.808Z,0.73
2018-04-26T11:20:26.749Z,0.67
2018-04-26T11:22:53.751Z,1.60
2018-04-26T11:25:20.781Z,0.93
2018-04-26T11:27:47.783Z,3.70
2018-04-26T11:30:14.763Z,1.73
2018-04-26T11:32:42.126Z,0.63
2018-04-26T11:35:09.112Z,2.67
2018-04-26T11:37:36.924Z,3.63
2018-04-26T11:40:03.962Z,0.97
2018-04-26T11:42:31.042Z,2.53
2018-04-26T11:44:58.979Z,1.00
2018-04-26T11:47:26.026Z,2.23
2018-04-26T11:49:53.129Z,1.17
2018-04-26T11:52:20.181Z,0.70
2018-04-26T11:54:47.151Z,3.17
2018-04-26T11:57:14.233Z,2.27
2018-04-26T12:02:19.766Z,0.82
2018-04-26T12:04:46.719Z,1.90
2018-04-26T12:07:13.724Z,0.67
2018-04-26T12:09:40.749Z,1.93
2018-04-26T12:12:07.753Z,1.77
2018-04-26T12:14:34.747Z,1.40
2018-04-26T12:17:01.866Z,2.03
2018-04-26T12:19:28.861Z,0.60
2018-04-26T12:21:55.861Z,0.73
2018-04-26T12:24:22.889Z,5.13
2018-04-26T12:26:49.891Z,3.13
2018-04-26T12:29:19.019Z,0.93
2018-04-26T12:31:47.006Z,0.80
2018-04-26T12:34:14.010Z,1.57
2018-04-26T12:36:40.998Z,2.50
2018-04-26T12:39:08.032Z,1.43
2018-04-26T12:41:35.858Z,5.40
2018-04-26T12:44:04.951Z,2.23
2018-04-26T12:46:31.975Z,1.67
2018-04-26T12:48:58.975Z,1.77
2018-04-26T12:51:25.979Z,2.33
2018-04-26T12:53:53.016Z,4.60
2018-04-26T12:56:20.015Z,2.23
2018-04-26T12:58:47.105Z,1.80
2018-04-26T13:01:14.159Z,1.67
2018-04-26T13:03:41.157Z,1.50
2018-04-26T13:06:08.152Z,1.90
2018-04-26T13:08:35.185Z,0.57
2018-04-26T13:11:02.187Z,2.10
2018-04-26T13:13:29.181Z,1.97
2018-04-26T13:15:56.217Z,1.10
2018-04-26T13:18:24.029Z,3.63
2018-04-26T13:20:51.111Z,3.13
2018-04-26T13:23:18.195Z,0.80
2018-04-26T13:28:23.683Z,2.97
2018-04-26T13:30:50.762Z,2.30
2018-04-26T13:33:17.767Z,0.97
2018-04-26T13:35:44.811Z,1.00
2018-04-26T13:38:11.820Z,3.93
2018-04-26T13:40:38.817Z,1.27
2018-04-26T13:43:05.943Z,3.20
2018-04-26T13:45:32.938Z,3.93
2018-04-26T13:47:59.943Z,1.93
2018-04-26T13:50:27.121Z,2.87
2018-04-26T13:52:55.211Z,3.73
2018-04-26T13:55:23.153Z,1.80
2018-04-26T13:57:50.190Z,0.83
2018-04-26T14:00:17.183Z,1.30
2018-04-26T14:02:44.181Z,2.20
2018-04-26T14:05:11.207Z,1.57
2018-04-26T14:07:39.141Z,1.90
2018-04-26T14:10:06.981Z,1.37
2018-04-26T14:12:33.993Z,0.60
2018-04-26T14:15:00.989Z,1.60
2018-04-26T14:17:28.061Z,2.60
2018-04-26T14:19:55.031Z,3.03
2018-04-26T14:22:22.121Z,1.33
2018-04-26T14:24:50.088Z,2.80
2018-04-26T14:27:17.117Z,2.00
2018-04-26T14:29:45.076Z,1.23
2018-04-26T14:32:12.075Z,5.00
2018-04-26T14:34:39.107Z,3.60
2018-04-26T14:37:06.201Z,1.60
2018-04-26T14:39:34.051Z,1.10
2018-04-26T14:42:01.103Z,4.50
2018-04-26T14:44:28.106Z,4.80
2018-04-26T14:46:55.118Z,1.40
2018-04-26T14:49:22.974Z,2.77
2018-04-26T14:54:28.493Z,4.05
2018-04-26T14:56:55.556Z,2.83
2018-04-26T14:59:22.481Z,0.67
2018-04-26T15:01:49.508Z,0.70
2018-04-26T15:04:16.510Z,0.83
2018-04-26T15:06:43.515Z,1.17
2018-04-26T15:09:10.552Z,2.80
2018-04-26T15:11:37.547Z,1.37
2018-04-26T15:14:04.555Z,0.70
2018-04-26T15:16:31.579Z,2.20
2018-04-26T15:18:58.569Z,1.70
2018-04-26T15:21:25.893Z,1.13
2018-04-26T15:23:52.935Z,5.13
2018-04-26T15:26:19.933Z,2.63
2018-04-26T15:28:46.934Z,2.83
2018-04-26T15:31:13.951Z,3.03
2018-04-26T15:33:40.941Z,4.13
2018-04-26T15:36:07.943Z,1.67
2018-04-26T15:38:34.968Z,3.27
2018-04-26T15:41:03.410Z,2.43
2018-04-26T15:43:30.165Z,2.20
2018-04-26T15:45:57.297Z,3.80
2018-04-26T15:48:24.180Z,1.70
2018-04-26T15:50:52.181Z,2.80
2018-04-26T15:53:31.037Z,1.43
2018-04-26T15:56:09.906Z,3.30
2018-04-26T16:01:26.789Z,4.37
2018-04-26T16:04:05.666Z,1.90
2018-04-26T16:06:44.647Z,3.03
2018-04-26T16:09:23.488Z,2.90
2018-04-26T16:14:49.065Z,6.07
2018-04-26T16:17:28.010Z,2.23
2018-04-26T16:20:00.920Z,4.30
2018-04-26T16:25:21.742Z,3.33
2018-04-26T16:27:57.536Z,2.33
2018-04-26T16:30:34.504Z,6.67
2018-04-26T16:33:13.919Z,5.97
2018-04-26T16:35:52.803Z,3.07
2018-04-26T16:38:31.639Z,1.87
2018-04-26T16:41:00.387Z,3.90
2018-04-26T16:43:30.701Z,7.23
2018-04-26T16:45:58.012Z,3.80
2018-04-26T16:48:25.867Z,2.80
2018-04-26T16:50:52.875Z,3.43
2018-04-26T16:53:21.017Z,2.87
2018-04-26T16:55:48.006Z,3.53
2018-04-26T16:58:15.090Z,7.90
2018-04-26T17:00:42.100Z,4.10
2018-04-26T17:03:09.138Z,4.87
2018-04-26T17:05:36.147Z,3.47
2018-04-26T17:08:03.151Z,4.60
2018-04-26T17:10:30.313Z,3.00
2018-04-26T17:12:57.319Z,6.03
2018-04-26T17:15:24.404Z,5.97
2018-04-26T17:17:51.456Z,6.33
2018-04-26T17:20:18.880Z,3.47
2018-04-26T17:22:46.732Z,3.17
2018-04-26T17:25:13.757Z,4.07
2018-04-26T17:27:40.748Z,3.03
2018-04-26T17:30:08.095Z,1.80
2018-04-26T17:32:35.237Z,7.73
2018-04-26T17:35:02.258Z,2.70
2018-04-26T17:37:29.501Z,2.90
2018-04-26T17:39:56.553Z,2.43
2018-04-26T17:42:23.700Z,6.20
2018-04-26T17:44:50.634Z,4.20
2018-04-26T17:47:17.668Z,4.47
2018-04-26T17:49:44.669Z,4.33
2018-04-26T17:52:11.755Z,3.97
2018-04-26T17:57:17.296Z,4.57
2018-04-26T17:59:44.314Z,4.07
2018-04-26T18:02:11.406Z,5.23
2018-04-26T18:04:38.415Z,5.00
2018-04-26T18:07:05.432Z,2.50
2018-04-26T18:09:32.486Z,6.73
2018-04-26T18:11:59.435Z,3.30
2018-04-26T18:14:26.528Z,4.43
2018-04-26T18:16:53.533Z,3.77
2018-04-26T18:19:20.552Z,4.17
2018-04-26T18:21:47.579Z,7.40
2018-04-26T18:24:14.580Z,3.13
2018-04-26T18:26:42.525Z,5.37
2018-04-26T18:29:09.567Z,4.53
2018-04-26T18:31:36.559Z,5.07
2018-04-26T18:34:05.099Z,3.37
2018-04-26T18:36:31.160Z,2.90
2018-04-26T18:38:58.141Z,3.57
2018-04-26T18:41:25.140Z,3.03
2018-04-26T18:43:52.186Z,6.13
2018-04-26T18:46:19.183Z,3.10
2018-04-26T18:48:46.177Z,4.90
2018-04-26T18:51:13.229Z,5.07
2018-04-26T18:53:41.072Z,6.50
2018-04-26T18:56:08.073Z,3.80
2018-04-26T18:58:35.114Z,5.20
2018-04-26T19:01:02.165Z,8.50
2018-04-26T19:03:29.156Z,5.37
2018-04-26T19:05:56.233Z,5.43
2018-04-26T19:08:23.642Z,3.83
2018-04-26T19:10:51.571Z,6.97
2018-04-26T19:13:18.721Z,4.80
2018-04-26T19:15:45.692Z,3.53
2018-04-26T19:20:53.463Z,4.80
2018-04-26T19:23:20.487Z,4.63
2018-04-26T19:25:48.466Z,5.43
2018-04-26T19:28:15.467Z,5.07
2018-04-26T19:30:42.492Z,5.13
2018-04-26T19:33:09.507Z,5.70
2018-04-26T19:35:36.545Z,4.17
2018-04-26T19:38:03.561Z,7.07
2018-04-26T19:40:30.574Z,5.23
2018-04-26T19:42:57.617Z,6.90
2018-04-26T19:45:24.617Z,3.23
2018-04-26T19:47:51.661Z,4.80
2018-04-26T19:50:18.692Z,5.17
2018-04-26T19:52:46.056Z,3.53
2018-04-26T19:55:12.999Z,3.00
2018-04-26T19:57:40.334Z,4.97
2018-04-26T20:00:07.508Z,11.57
2018-04-26T20:02:34.545Z,7.90
2018-04-26T20:05:01.575Z,4.77
2018-04-26T20:07:28.586Z,11.47
2018-04-26T20:09:55.597Z,2.83
2018-04-26T20:12:22.637Z,6.10
2018-04-26T20:14:49.667Z,7.67
2018-04-26T20:17:16.671Z,7.50
2018-04-26T20:19:43.695Z,6.40
2018-04-26T20:22:10.698Z,7.20
2018-04-26T20:24:37.708Z,7.10
2018-04-26T20:27:04.753Z,4.77
2018-04-26T20:29:31.780Z,5.23
2018-04-26T20:31:58.849Z,5.43
2018-04-26T20:34:25.934Z,4.50
2018-04-26T20:36:52.974Z,7.50
2018-04-26T20:39:19.989Z,5.70
2018-04-26T20:44:42.206Z,5.90
2018-04-26T20:47:09.255Z,5.33
2018-04-26T20:49:36.252Z,4.57
2018-04-26T20:52:03.733Z,6.07
2018-04-26T20:54:30.860Z,7.30
2018-04-26T20:56:57.885Z,3.83
2018-04-26T20:59:27.555Z,6.80
2018-04-26T21:01:54.632Z,11.93
2018-04-26T21:04:21.631Z,4.33
2018-04-26T21:06:48.642Z,5.63
2018-04-26T21:09:19.965Z,4.90
2018-04-26T21:11:46.976Z,7.90
2018-04-26T21:16:54.074Z,5.22
2018-04-26T21:19:21.067Z,5.77
2018-04-26T21:21:48.065Z,5.73
2018-04-26T21:24:15.104Z,5.87
2018-04-26T21:26:42.124Z,7.10
2018-04-26T21:29:10.898Z,5.37
2018-04-26T21:31:37.974Z,6.37
2018-04-26T21:34:04.976Z,13.83
2018-04-26T21:36:32.020Z,12.40
2018-04-26T21:44:50.848Z,13.40
2018-04-26T21:47:17.883Z,4.70
2018-04-26T21:49:44.887Z,6.63
2018-04-26T21:52:13.522Z,5.97
2018-04-26T21:54:40.582Z,6.23
2018-04-26T21:57:07.549Z,9.73
2018-04-26T21:59:34.613Z,7.30
2018-04-26T22:02:01.615Z,6.23
2018-04-26T22:04:28.639Z,4.73
2018-04-26T22:06:55.686Z,4.33
2018-04-26T22:09:22.727Z,7.10
2018-04-26T22:11:49.735Z,4.40
2018-04-26T22:14:16.803Z,5.60
2018-04-26T22:16:43.832Z,6.70
2018-04-26T22:19:10.845Z,6.43
2018-04-26T22:21:37.927Z,5.30
2018-04-26T22:24:04.941Z,4.70
2018-04-26T22:26:31.928Z,4.40
2018-04-26T22:28:58.990Z,6.00
2018-04-26T22:31:25.996Z,6.97
2018-04-26T22:33:52.983Z,4.83
2018-04-26T22:36:20.106Z,5.57
2018-04-26T22:38:47.473Z,6.23
2018-04-26T22:43:54.077Z,5.28
2018-04-26T22:46:21.841Z,4.17
2018-04-26T22:48:49.455Z,4.90
2018-04-26T22:51:16.939Z,5.07
2018-04-26T22:56:28.818Z,4.23
2018-04-26T22:58:56.031Z,6.70
2018-04-26T23:01:23.311Z,3.60
2018-04-26T23:03:50.350Z,4.47
2018-04-26T23:06:20.314Z,4.33
2018-04-26T23:08:47.316Z,6.27
2018-04-26T23:11:14.359Z,3.37
2018-04-26T23:13:41.361Z,8.83
2018-04-26T23:16:08.348Z,6.33
2018-04-26T23:18:35.380Z,4.50
2018-04-26T23:21:02.452Z,5.47
2018-04-26T23:26:14.210Z,7.70
2018-04-26T23:28:41.223Z,7.47
2018-04-26T23:31:08.263Z,7.83
2018-04-26T23:33:35.752Z,7.10
2018-04-26T23:36:02.766Z,5.87
2018-04-26T23:38:29.800Z,4.93
2018-04-26T23:40:56.861Z,4.63
2018-04-26T23:43:28.507Z,6.37
2018-04-26T23:45:59.122Z,5.60
2018-04-26T23:48:26.139Z,10.57
2018-04-26T23:53:35.939Z,6.70
2018-04-26T23:56:03.717Z,7.43
2018-04-26T23:58:30.731Z,6.40
